sensor_id;sensor_type;location;lat;lon;timestamp;temperature;humidity
69418;DHT22;56610;48.872;2.400;2023-07-08T00:02:10;29.20;83.40
69418;DHT22;56610;48.872;2.400;2023-07-08T00:04:36;29.10;83.30
69418;DHT22;56610;48.872;2.400;2023-07-08T00:07:02;29.10;83.70
69418;DHT22;56610;48.872;2.400;2023-07-08T00:09:28;29.10;83.30
69418;DHT22;56610;48.872;2.400;2023-07-08T00:11:53;29.00;83.90
69418;DHT22;56610;48.872;2.400;2023-07-08T00:14:19;29.00;83.90
69418;DHT22;56610;48.872;2.400;2023-07-08T00:16:44;29.00;83.80
69418;DHT22;56610;48.872;2.400;2023-07-08T00:19:10;29.10;84.10
69418;DHT22;56610;48.872;2.400;2023-07-08T00:21:36;29.10;84.10
69418;DHT22;56610;48.872;2.400;2023-07-08T00:24:01;29.00;83.90
69418;DHT22;56610;48.872;2.400;2023-07-08T00:26:30;29.00;84.30
69418;DHT22;56610;48.872;2.400;2023-07-08T00:28:56;29.00;84.50
69418;DHT22;56610;48.872;2.400;2023-07-08T00:31:23;28.90;84.60
69418;DHT22;56610;48.872;2.400;2023-07-08T00:33:53;28.90;84.30
69418;DHT22;56610;48.872;2.400;2023-07-08T00:36:21;29.00;84.10
69418;DHT22;56610;48.872;2.400;2023-07-08T00:38:47;29.00;84.50
69418;DHT22;56610;48.872;2.400;2023-07-08T00:41:32;29.00;84.20
69418;DHT22;56610;48.872;2.400;2023-07-08T00:43:59;28.90;84.40
69418;DHT22;56610;48.872;2.400;2023-07-08T00:51:35;28.80;84.60
69418;DHT22;56610;48.872;2.400;2023-07-08T00:54:03;28.80;84.90
69418;DHT22;56610;48.872;2.400;2023-07-08T00:56:33;28.70;84.80
69418;DHT22;56610;48.872;2.400;2023-07-08T00:59:10;28.70;84.90
69418;DHT22;56610;48.872;2.400;2023-07-08T01:01:41;28.60;85.10
69418;DHT22;56610;48.872;2.400;2023-07-08T01:04:18;28.60;85.50
69418;DHT22;56610;48.872;2.400;2023-07-08T01:06:48;28.60;85.30
69418;DHT22;56610;48.872;2.400;2023-07-08T01:09:23;28.40;85.40
69418;DHT22;56610;48.872;2.400;2023-07-08T01:11:49;28.50;86.10
69418;DHT22;56610;48.872;2.400;2023-07-08T01:14:18;28.50;86.00
69418;DHT22;56610;48.872;2.400;2023-07-08T01:16:44;28.50;86.10
69418;DHT22;56610;48.872;2.400;2023-07-08T01:19:15;28.50;86.30
69418;DHT22;56610;48.872;2.400;2023-07-08T01:22:05;28.50;85.70
69418;DHT22;56610;48.872;2.400;2023-07-08T01:24:35;28.60;85.80
69418;DHT22;56610;48.872;2.400;2023-07-08T01:27:02;28.80;85.20
69418;DHT22;56610;48.872;2.400;2023-07-08T01:29:28;28.90;85.10
69418;DHT22;56610;48.872;2.400;2023-07-08T01:31:57;29.00;85.40
69418;DHT22;56610;48.872;2.400;2023-07-08T01:34:23;29.20;84.60
69418;DHT22;56610;48.872;2.400;2023-07-08T01:36:52;29.20;84.50
69418;DHT22;56610;48.872;2.400;2023-07-08T01:39:21;29.20;84.80
69418;DHT22;56610;48.872;2.400;2023-07-08T01:41:48;29.30;84.20
69418;DHT22;56610;48.872;2.400;2023-07-08T01:44:42;29.40;84.70
69418;DHT22;56610;48.872;2.400;2023-07-08T01:47:15;29.50;84.00
69418;DHT22;56610;48.872;2.400;2023-07-08T01:49:42;29.50;84.20
69418;DHT22;56610;48.872;2.400;2023-07-08T01:52:10;29.80;83.70
69418;DHT22;56610;48.872;2.400;2023-07-08T01:54:36;29.60;83.40
69418;DHT22;56610;48.872;2.400;2023-07-08T01:57:02;29.50;84.00
69418;DHT22;56610;48.872;2.400;2023-07-08T01:59:28;29.40;84.50
69418;DHT22;56610;48.872;2.400;2023-07-08T02:01:54;29.10;84.90
69418;DHT22;56610;48.872;2.400;2023-07-08T02:04:25;29.00;84.60
69418;DHT22;56610;48.872;2.400;2023-07-08T02:06:55;28.70;85.40
69418;DHT22;56610;48.872;2.400;2023-07-08T02:09:21;28.90;85.50
69418;DHT22;56610;48.872;2.400;2023-07-08T02:11:46;28.70;85.70
69418;DHT22;56610;48.872;2.400;2023-07-08T02:14:12;28.70;86.30
69418;DHT22;56610;48.872;2.400;2023-07-08T02:16:37;28.70;86.40
69418;DHT22;56610;48.872;2.400;2023-07-08T02:19:03;28.40;87.30
69418;DHT22;56610;48.872;2.400;2023-07-08T02:21:28;28.40;87.60
69418;DHT22;56610;48.872;2.400;2023-07-08T02:23:57;28.20;88.40
69418;DHT22;56610;48.872;2.400;2023-07-08T02:26:23;28.10;89.10
69418;DHT22;56610;48.872;2.400;2023-07-08T02:28:48;28.00;89.90
69418;DHT22;56610;48.872;2.400;2023-07-08T02:31:14;27.80;90.40
69418;DHT22;56610;48.872;2.400;2023-07-08T02:33:40;27.80;90.70
69418;DHT22;56610;48.872;2.400;2023-07-08T02:36:05;27.60;91.00
69418;DHT22;56610;48.872;2.400;2023-07-08T02:38:31;27.40;91.50
69418;DHT22;56610;48.872;2.400;2023-07-08T02:40:57;27.40;91.50
69418;DHT22;56610;48.872;2.400;2023-07-08T02:43:22;27.20;91.90
69418;DHT22;56610;48.872;2.400;2023-07-08T02:45:51;27.10;92.00
69418;DHT22;56610;48.872;2.400;2023-07-08T02:48:18;27.00;92.70
69418;DHT22;56610;48.872;2.400;2023-07-08T02:50:43;27.00;92.90
69418;DHT22;56610;48.872;2.400;2023-07-08T02:53:09;26.90;93.10
69418;DHT22;56610;48.872;2.400;2023-07-08T02:55:35;26.90;93.50
69418;DHT22;56610;48.872;2.400;2023-07-08T02:58:00;27.00;93.60
69418;DHT22;56610;48.872;2.400;2023-07-08T03:00:26;27.00;93.90
69418;DHT22;56610;48.872;2.400;2023-07-08T03:02:51;27.00;93.90
69418;DHT22;56610;48.872;2.400;2023-07-08T03:05:17;26.90;93.70
69418;DHT22;56610;48.872;2.400;2023-07-08T03:07:43;26.70;94.20
69418;DHT22;56610;48.872;2.400;2023-07-08T03:10:09;26.60;94.00
69418;DHT22;56610;48.872;2.400;2023-07-08T03:12:34;26.60;94.50
69418;DHT22;56610;48.872;2.400;2023-07-08T03:15:00;26.70;94.60
69418;DHT22;56610;48.872;2.400;2023-07-08T03:17:26;26.60;94.60
69418;DHT22;56610;48.872;2.400;2023-07-08T03:19:51;26.60;95.10
69418;DHT22;56610;48.872;2.400;2023-07-08T03:22:17;26.50;95.10
69418;DHT22;56610;48.872;2.400;2023-07-08T03:24:43;26.50;95.10
69418;DHT22;56610;48.872;2.400;2023-07-08T03:27:15;26.40;95.10
69418;DHT22;56610;48.872;2.400;2023-07-08T03:29:41;26.50;95.30
69418;DHT22;56610;48.872;2.400;2023-07-08T03:32:09;26.40;95.40
69418;DHT22;56610;48.872;2.400;2023-07-08T03:34:35;26.40;95.40
69418;DHT22;56610;48.872;2.400;2023-07-08T03:37:01;26.40;95.60
69418;DHT22;56610;48.872;2.400;2023-07-08T03:39:27;26.50;95.50
69418;DHT22;56610;48.872;2.400;2023-07-08T03:41:53;26.50;95.70
69418;DHT22;56610;48.872;2.400;2023-07-08T03:44:18;26.30;96.00
69418;DHT22;56610;48.872;2.400;2023-07-08T03:46:47;26.30;96.20
69418;DHT22;56610;48.872;2.400;2023-07-08T03:49:15;26.30;96.50
69418;DHT22;56610;48.872;2.400;2023-07-08T03:51:42;26.20;96.60
69418;DHT22;56610;48.872;2.400;2023-07-08T03:54:12;26.20;96.60
69418;DHT22;56610;48.872;2.400;2023-07-08T03:56:38;26.20;96.40
69418;DHT22;56610;48.872;2.400;2023-07-08T03:59:04;26.10;96.30
69418;DHT22;56610;48.872;2.400;2023-07-08T04:01:29;26.20;96.40
69418;DHT22;56610;48.872;2.400;2023-07-08T04:03:58;26.30;96.10
69418;DHT22;56610;48.872;2.400;2023-07-08T04:06:24;26.40;96.10
69418;DHT22;56610;48.872;2.400;2023-07-08T04:08:50;26.40;96.00
69418;DHT22;56610;48.872;2.400;2023-07-08T04:11:19;26.30;96.00
69418;DHT22;56610;48.872;2.400;2023-07-08T04:13:44;26.30;96.10
69418;DHT22;56610;48.872;2.400;2023-07-08T04:16:19;26.30;96.40
69418;DHT22;56610;48.872;2.400;2023-07-08T04:18:46;26.20;96.60
69418;DHT22;56610;48.872;2.400;2023-07-08T04:21:11;26.30;96.50
69418;DHT22;56610;48.872;2.400;2023-07-08T04:23:37;26.30;96.40
69418;DHT22;56610;48.872;2.400;2023-07-08T04:26:03;26.30;96.50
69418;DHT22;56610;48.872;2.400;2023-07-08T04:28:29;26.40;96.30
69418;DHT22;56610;48.872;2.400;2023-07-08T04:30:54;26.30;96.50
69418;DHT22;56610;48.872;2.400;2023-07-08T04:33:20;26.30;96.50
69418;DHT22;56610;48.872;2.400;2023-07-08T04:35:45;26.40;96.20
69418;DHT22;56610;48.872;2.400;2023-07-08T04:38:18;26.40;96.50
69418;DHT22;56610;48.872;2.400;2023-07-08T04:40:44;26.40;96.10
69418;DHT22;56610;48.872;2.400;2023-07-08T04:43:10;26.50;96.50
69418;DHT22;56610;48.872;2.400;2023-07-08T04:45:41;26.60;95.90
69418;DHT22;56610;48.872;2.400;2023-07-08T04:48:12;26.60;95.90
69418;DHT22;56610;48.872;2.400;2023-07-08T04:50:45;26.60;96.00
69418;DHT22;56610;48.872;2.400;2023-07-08T04:53:12;26.50;96.00
69418;DHT22;56610;48.872;2.400;2023-07-08T04:55:41;26.50;96.10
69418;DHT22;56610;48.872;2.400;2023-07-08T04:58:07;26.70;95.90
69418;DHT22;56610;48.872;2.400;2023-07-08T05:00:33;26.80;96.10
69418;DHT22;56610;48.872;2.400;2023-07-08T05:02:58;27.00;96.20
69418;DHT22;56610;48.872;2.400;2023-07-08T05:05:24;27.00;95.50
69418;DHT22;56610;48.872;2.400;2023-07-08T05:07:50;27.00;95.50
69418;DHT22;56610;48.872;2.400;2023-07-08T05:10:16;27.00;95.60
69418;DHT22;56610;48.872;2.400;2023-07-08T05:12:43;27.00;96.10
69418;DHT22;56610;48.872;2.400;2023-07-08T05:15:09;27.20;96.10
69418;DHT22;56610;48.872;2.400;2023-07-08T05:17:37;27.10;95.80
69418;DHT22;56610;48.872;2.400;2023-07-08T05:20:04;27.20;95.20
69418;DHT22;56610;48.872;2.400;2023-07-08T05:22:30;27.10;95.40
69418;DHT22;56610;48.872;2.400;2023-07-08T05:24:56;27.00;95.40
69418;DHT22;56610;48.872;2.400;2023-07-08T05:27:22;27.00;95.70
69418;DHT22;56610;48.872;2.400;2023-07-08T05:29:48;27.10;95.80
69418;DHT22;56610;48.872;2.400;2023-07-08T05:32:14;27.00;96.00
69418;DHT22;56610;48.872;2.400;2023-07-08T05:34:40;27.30;95.50
69418;DHT22;56610;48.872;2.400;2023-07-08T05:37:06;27.40;95.00
69418;DHT22;56610;48.872;2.400;2023-07-08T05:39:31;27.80;94.70
69418;DHT22;56610;48.872;2.400;2023-07-08T05:41:57;27.90;94.10
69418;DHT22;56610;48.872;2.400;2023-07-08T05:44:23;27.90;94.50
69418;DHT22;56610;48.872;2.400;2023-07-08T05:46:49;28.00;94.10
69418;DHT22;56610;48.872;2.400;2023-07-08T05:49:15;28.10;94.20
69418;DHT22;56610;48.872;2.400;2023-07-08T05:51:42;28.20;94.10
69418;DHT22;56610;48.872;2.400;2023-07-08T05:54:08;28.30;93.70
69418;DHT22;56610;48.872;2.400;2023-07-08T05:56:34;28.30;93.80
69418;DHT22;56610;48.872;2.400;2023-07-08T05:58:59;28.30;93.70
69418;DHT22;56610;48.872;2.400;2023-07-08T06:01:25;28.30;93.90
69418;DHT22;56610;48.872;2.400;2023-07-08T06:03:50;28.50;94.10
69418;DHT22;56610;48.872;2.400;2023-07-08T06:06:16;28.50;93.60
69418;DHT22;56610;48.872;2.400;2023-07-08T06:08:42;28.70;93.80
69418;DHT22;56610;48.872;2.400;2023-07-08T06:11:07;28.90;93.50
69418;DHT22;56610;48.872;2.400;2023-07-08T06:13:33;28.80;93.50
69418;DHT22;56610;48.872;2.400;2023-07-08T06:15:59;29.00;93.50
69418;DHT22;56610;48.872;2.400;2023-07-08T06:18:24;29.00;93.20
69418;DHT22;56610;48.872;2.400;2023-07-08T06:20:57;29.10;93.30
69418;DHT22;56610;48.872;2.400;2023-07-08T06:23:23;29.10;93.30
69418;DHT22;56610;48.872;2.400;2023-07-08T06:25:49;28.90;94.00
69418;DHT22;56610;48.872;2.400;2023-07-08T06:28:14;29.00;93.70
69418;DHT22;56610;48.872;2.400;2023-07-08T06:30:40;28.70;94.00
69418;DHT22;56610;48.872;2.400;2023-07-08T06:33:06;28.70;94.40
69418;DHT22;56610;48.872;2.400;2023-07-08T06:35:31;28.50;94.30
69418;DHT22;56610;48.872;2.400;2023-07-08T06:37:57;28.20;94.70
69418;DHT22;56610;48.872;2.400;2023-07-08T06:40:23;28.20;94.70
69418;DHT22;56610;48.872;2.400;2023-07-08T06:42:48;27.90;95.00
69418;DHT22;56610;48.872;2.400;2023-07-08T06:45:14;27.90;94.90
69418;DHT22;56610;48.872;2.400;2023-07-08T06:47:40;27.70;95.20
69418;DHT22;56610;48.872;2.400;2023-07-08T06:50:06;27.80;94.90
69418;DHT22;56610;48.872;2.400;2023-07-08T06:52:32;27.70;95.10
69418;DHT22;56610;48.872;2.400;2023-07-08T06:55:01;27.60;95.60
69418;DHT22;56610;48.872;2.400;2023-07-08T06:57:27;27.70;95.50
69418;DHT22;56610;48.872;2.400;2023-07-08T06:59:53;27.80;95.20
69418;DHT22;56610;48.872;2.400;2023-07-08T07:02:19;27.70;95.60
69418;DHT22;56610;48.872;2.400;2023-07-08T07:04:45;27.80;95.00
69418;DHT22;56610;48.872;2.400;2023-07-08T07:07:11;27.70;95.20
69418;DHT22;56610;48.872;2.400;2023-07-08T07:09:37;27.80;95.30
69418;DHT22;56610;48.872;2.400;2023-07-08T07:12:05;27.70;95.20
69418;DHT22;56610;48.872;2.400;2023-07-08T07:14:32;27.60;95.30
69418;DHT22;56610;48.872;2.400;2023-07-08T07:16:57;27.60;95.20
69418;DHT22;56610;48.872;2.400;2023-07-08T07:19:23;27.70;95.20
69418;DHT22;56610;48.872;2.400;2023-07-08T07:21:48;27.70;95.40
69418;DHT22;56610;48.872;2.400;2023-07-08T07:24:14;27.90;95.00
69418;DHT22;56610;48.872;2.400;2023-07-08T07:26:40;27.80;95.00
69418;DHT22;56610;48.872;2.400;2023-07-08T07:29:05;27.90;94.90
69418;DHT22;56610;48.872;2.400;2023-07-08T07:31:31;27.80;94.90
69418;DHT22;56610;48.872;2.400;2023-07-08T07:34:00;27.90;95.00
69418;DHT22;56610;48.872;2.400;2023-07-08T07:36:27;28.00;94.50
69418;DHT22;56610;48.872;2.400;2023-07-08T07:38:53;28.00;94.80
69418;DHT22;56610;48.872;2.400;2023-07-08T07:41:18;28.30;93.90
69418;DHT22;56610;48.872;2.400;2023-07-08T07:43:44;28.10;94.20
69418;DHT22;56610;48.872;2.400;2023-07-08T07:46:09;28.10;94.40
69418;DHT22;56610;48.872;2.400;2023-07-08T07:48:36;28.30;93.90
69418;DHT22;56610;48.872;2.400;2023-07-08T07:51:02;28.20;94.30
69418;DHT22;56610;48.872;2.400;2023-07-08T07:53:27;28.10;94.60
69418;DHT22;56610;48.872;2.400;2023-07-08T07:55:58;28.30;94.90
69418;DHT22;56610;48.872;2.400;2023-07-08T07:58:24;28.10;95.00
69418;DHT22;56610;48.872;2.400;2023-07-08T08:00:50;28.50;94.50
69418;DHT22;56610;48.872;2.400;2023-07-08T08:03:16;28.40;94.70
69418;DHT22;56610;48.872;2.400;2023-07-08T08:05:42;28.70;94.50
69418;DHT22;56610;48.872;2.400;2023-07-08T08:08:08;28.80;94.00
69418;DHT22;56610;48.872;2.400;2023-07-08T08:10:35;28.70;94.40
69418;DHT22;56610;48.872;2.400;2023-07-08T08:13:01;29.00;93.90
69418;DHT22;56610;48.872;2.400;2023-07-08T08:15:26;28.80;93.70
69418;DHT22;56610;48.872;2.400;2023-07-08T08:17:52;29.00;93.80
69418;DHT22;56610;48.872;2.400;2023-07-08T08:20:19;29.10;93.70
69418;DHT22;56610;48.872;2.400;2023-07-08T08:22:45;29.10;94.10
69418;DHT22;56610;48.872;2.400;2023-07-08T08:25:11;29.20;93.80
69418;DHT22;56610;48.872;2.400;2023-07-08T08:27:37;29.20;94.00
69418;DHT22;56610;48.872;2.400;2023-07-08T08:30:05;29.40;93.70
69418;DHT22;56610;48.872;2.400;2023-07-08T08:32:31;29.30;93.50
69418;DHT22;56610;48.872;2.400;2023-07-08T08:34:57;29.30;93.70
69418;DHT22;56610;48.872;2.400;2023-07-08T08:37:22;29.20;94.00
69418;DHT22;56610;48.872;2.400;2023-07-08T08:39:48;29.20;94.40
69418;DHT22;56610;48.872;2.400;2023-07-08T08:42:27;29.50;94.10
69418;DHT22;56610;48.872;2.400;2023-07-08T08:44:56;29.50;93.80
69418;DHT22;56610;48.872;2.400;2023-07-08T08:47:44;29.50;94.20
69418;DHT22;56610;48.872;2.400;2023-07-08T08:50:20;29.50;93.90
69418;DHT22;56610;48.872;2.400;2023-07-08T08:52:50;29.30;93.70
69418;DHT22;56610;48.872;2.400;2023-07-08T08:55:17;29.30;93.80
69418;DHT22;56610;48.872;2.400;2023-07-08T09:00:42;28.90;94.30
69418;DHT22;56610;48.872;2.400;2023-07-08T09:03:15;29.10;94.30
69418;DHT22;56610;48.872;2.400;2023-07-08T09:05:44;29.20;94.20
69418;DHT22;56610;48.872;2.400;2023-07-08T09:08:23;29.50;94.00
69418;DHT22;56610;48.872;2.400;2023-07-08T09:11:15;29.40;94.00
69418;DHT22;56610;48.872;2.400;2023-07-08T09:13:44;29.40;94.30
69418;DHT22;56610;48.872;2.400;2023-07-08T09:16:26;29.40;94.20
69418;DHT22;56610;48.872;2.400;2023-07-08T09:24:37;29.20;94.80
69418;DHT22;56610;48.872;2.400;2023-07-08T09:27:04;29.40;94.50
69418;DHT22;56610;48.872;2.400;2023-07-08T09:29:31;29.60;94.80
69418;DHT22;56610;48.872;2.400;2023-07-08T09:31:58;29.80;94.60
69418;DHT22;56610;48.872;2.400;2023-07-08T09:34:37;29.70;94.40
69418;DHT22;56610;48.872;2.400;2023-07-08T09:37:13;29.60;94.90
69418;DHT22;56610;48.872;2.400;2023-07-08T09:39:43;29.80;94.40
69418;DHT22;56610;48.872;2.400;2023-07-08T09:42:09;29.90;94.30
69418;DHT22;56610;48.872;2.400;2023-07-08T09:44:38;30.20;93.70
69418;DHT22;56610;48.872;2.400;2023-07-08T09:47:27;30.40;93.90
69418;DHT22;56610;48.872;2.400;2023-07-08T09:49:58;30.40;94.00
69418;DHT22;56610;48.872;2.400;2023-07-08T09:52:24;30.60;93.40
69418;DHT22;56610;48.872;2.400;2023-07-08T09:54:50;30.30;93.90
69418;DHT22;56610;48.872;2.400;2023-07-08T09:57:26;30.60;93.50
69418;DHT22;56610;48.872;2.400;2023-07-08T09:59:57;30.50;93.60
69418;DHT22;56610;48.872;2.400;2023-07-08T10:02:56;30.30;94.00
69418;DHT22;56610;48.872;2.400;2023-07-08T10:05:30;30.50;93.60
69418;DHT22;56610;48.872;2.400;2023-07-08T10:07:58;30.30;93.60
69418;DHT22;56610;48.872;2.400;2023-07-08T10:10:32;30.30;93.60
69418;DHT22;56610;48.872;2.400;2023-07-08T10:13:02;30.10;94.00
69418;DHT22;56610;48.872;2.400;2023-07-08T10:15:34;30.10;94.20
69418;DHT22;56610;48.872;2.400;2023-07-08T10:18:01;30.30;93.60
69418;DHT22;56610;48.872;2.400;2023-07-08T10:26:39;29.80;93.70
69418;DHT22;56610;48.872;2.400;2023-07-08T10:29:28;30.00;94.10
69418;DHT22;56610;48.872;2.400;2023-07-08T10:32:12;30.20;93.40
69418;DHT22;56610;48.872;2.400;2023-07-08T10:35:12;30.50;93.10
69418;DHT22;56610;48.872;2.400;2023-07-08T10:40:53;30.50;93.10
69418;DHT22;56610;48.872;2.400;2023-07-08T10:52:11;30.80;93.10
69418;DHT22;56610;48.872;2.400;2023-07-08T10:57:35;31.20;92.60
69418;DHT22;56610;48.872;2.400;2023-07-08T11:03:08;31.70;92.20
69418;DHT22;56610;48.872;2.400;2023-07-08T11:05:54;31.90;92.20
69418;DHT22;56610;48.872;2.400;2023-07-08T11:08:25;32.50;91.10
69418;DHT22;56610;48.872;2.400;2023-07-08T11:11:07;32.80;90.20
69418;DHT22;56610;48.872;2.400;2023-07-08T11:13:38;33.00;90.20
69418;DHT22;56610;48.872;2.400;2023-07-08T11:16:13;33.10;88.80
69418;DHT22;56610;48.872;2.400;2023-07-08T11:18:43;33.10;90.00
69418;DHT22;56610;48.872;2.400;2023-07-08T11:21:30;33.50;90.20
69418;DHT22;56610;48.872;2.400;2023-07-08T11:24:07;33.90;87.70
69418;DHT22;56610;48.872;2.400;2023-07-08T11:26:53;34.30;88.20
69418;DHT22;56610;48.872;2.400;2023-07-08T11:29:25;34.80;87.60
69418;DHT22;56610;48.872;2.400;2023-07-08T11:31:52;35.10;85.30
69418;DHT22;56610;48.872;2.400;2023-07-08T11:34:20;35.30;85.60
69418;DHT22;56610;48.872;2.400;2023-07-08T11:36:48;35.50;85.80
69418;DHT22;56610;48.872;2.400;2023-07-08T11:39:53;35.70;85.20
69418;DHT22;56610;48.872;2.400;2023-07-08T11:44:57;36.00;82.70
69418;DHT22;56610;48.872;2.400;2023-07-08T11:48:03;35.70;83.30
69418;DHT22;56610;48.872;2.400;2023-07-08T11:50:32;36.00;82.60
69418;DHT22;56610;48.872;2.400;2023-07-08T11:53:03;36.00;81.30
69418;DHT22;56610;48.872;2.400;2023-07-08T11:55:38;36.10;82.20
69418;DHT22;56610;48.872;2.400;2023-07-08T11:58:21;36.20;81.80
69418;DHT22;56610;48.872;2.400;2023-07-08T12:01:24;36.00;81.90
69418;DHT22;56610;48.872;2.400;2023-07-08T12:04:15;36.30;81.80
69418;DHT22;56610;48.872;2.400;2023-07-08T12:06:48;36.20;81.20
69418;DHT22;56610;48.872;2.400;2023-07-08T12:09:26;36.30;81.60
69418;DHT22;56610;48.872;2.400;2023-07-08T12:12:03;36.10;81.50
69418;DHT22;56610;48.872;2.400;2023-07-08T12:14:31;36.10;81.30
69418;DHT22;56610;48.872;2.400;2023-07-08T12:16:57;36.20;80.40
69418;DHT22;56610;48.872;2.400;2023-07-08T12:19:25;36.30;79.60
69418;DHT22;56610;48.872;2.400;2023-07-08T12:21:54;36.40;79.40
69418;DHT22;56610;48.872;2.400;2023-07-08T12:24:20;36.60;78.50
69418;DHT22;56610;48.872;2.400;2023-07-08T12:26:51;36.50;79.80
69418;DHT22;56610;48.872;2.400;2023-07-08T12:29:17;36.70;78.50
69418;DHT22;56610;48.872;2.400;2023-07-08T12:31:43;36.90;77.00
69418;DHT22;56610;48.872;2.400;2023-07-08T12:34:13;36.90;77.20
69418;DHT22;56610;48.872;2.400;2023-07-08T12:36:41;37.10;76.00
69418;DHT22;56610;48.872;2.400;2023-07-08T12:39:11;36.90;77.00
69418;DHT22;56610;48.872;2.400;2023-07-08T12:41:41;36.60;77.20
69418;DHT22;56610;48.872;2.400;2023-07-08T12:44:23;36.80;76.80
69418;DHT22;56610;48.872;2.400;2023-07-08T12:46:52;36.90;77.20
69418;DHT22;56610;48.872;2.400;2023-07-08T12:49:19;37.00;77.30
69418;DHT22;56610;48.872;2.400;2023-07-08T12:51:46;37.00;77.60
69418;DHT22;56610;48.872;2.400;2023-07-08T12:54:12;37.00;76.50
69418;DHT22;56610;48.872;2.400;2023-07-08T12:56:39;37.20;77.20
69418;DHT22;56610;48.872;2.400;2023-07-08T12:59:06;37.50;76.50
69418;DHT22;56610;48.872;2.400;2023-07-08T13:01:33;37.70;76.60
69418;DHT22;56610;48.872;2.400;2023-07-08T13:04:02;38.00;76.70
69418;DHT22;56610;48.872;2.400;2023-07-08T13:06:30;38.30;74.30
69418;DHT22;56610;48.872;2.400;2023-07-08T13:09:07;38.20;74.20
69418;DHT22;56610;48.872;2.400;2023-07-08T13:11:34;38.20;73.60
69418;DHT22;56610;48.872;2.400;2023-07-08T13:14:01;38.10;73.60
69418;DHT22;56610;48.872;2.400;2023-07-08T13:16:32;37.80;75.00
69418;DHT22;56610;48.872;2.400;2023-07-08T13:18:59;37.50;75.00
69418;DHT22;56610;48.872;2.400;2023-07-08T13:21:26;37.50;73.80
69418;DHT22;56610;48.872;2.400;2023-07-08T13:23:56;37.40;73.90
69418;DHT22;56610;48.872;2.400;2023-07-08T13:26:24;37.10;73.90
69418;DHT22;56610;48.872;2.400;2023-07-08T13:29:20;36.90;74.40
69418;DHT22;56610;48.872;2.400;2023-07-08T13:31:52;36.80;74.60
69418;DHT22;56610;48.872;2.400;2023-07-08T13:34:20;37.00;74.50
69418;DHT22;56610;48.872;2.400;2023-07-08T13:36:50;36.60;74.30
69418;DHT22;56610;48.872;2.400;2023-07-08T13:39:32;36.60;75.00
69418;DHT22;56610;48.872;2.400;2023-07-08T13:41:58;36.60;74.70
69418;DHT22;56610;48.872;2.400;2023-07-08T13:44:24;36.50;75.20
69418;DHT22;56610;48.872;2.400;2023-07-08T13:46:51;36.70;75.30
69418;DHT22;56610;48.872;2.400;2023-07-08T13:54:51;37.70;73.90
69418;DHT22;56610;48.872;2.400;2023-07-08T13:57:20;38.00;72.60
69418;DHT22;56610;48.872;2.400;2023-07-08T13:59:46;38.10;71.60
69418;DHT22;56610;48.872;2.400;2023-07-08T14:02:22;38.20;72.90
69418;DHT22;56610;48.872;2.400;2023-07-08T14:04:48;38.30;71.00
69418;DHT22;56610;48.872;2.400;2023-07-08T14:07:17;38.40;71.60
69418;DHT22;56610;48.872;2.400;2023-07-08T14:09:44;38.90;71.50
69418;DHT22;56610;48.872;2.400;2023-07-08T14:12:09;39.20;70.20
69418;DHT22;56610;48.872;2.400;2023-07-08T14:14:35;39.30;68.60
69418;DHT22;56610;48.872;2.400;2023-07-08T14:17:01;39.50;69.90
69418;DHT22;56610;48.872;2.400;2023-07-08T14:19:31;39.40;69.00
69418;DHT22;56610;48.872;2.400;2023-07-08T14:21:59;39.20;69.00
69418;DHT22;56610;48.872;2.400;2023-07-08T14:24:25;39.50;68.80
69418;DHT22;56610;48.872;2.400;2023-07-08T14:26:52;39.30;67.50
69418;DHT22;56610;48.872;2.400;2023-07-08T14:29:18;39.20;68.70
69418;DHT22;56610;48.872;2.400;2023-07-08T14:31:44;39.10;69.00
69418;DHT22;56610;48.872;2.400;2023-07-08T14:34:20;39.10;69.10
69418;DHT22;56610;48.872;2.400;2023-07-08T14:36:47;39.40;67.90
69418;DHT22;56610;48.872;2.400;2023-07-08T14:39:14;39.60;67.30
69418;DHT22;56610;48.872;2.400;2023-07-08T14:41:40;39.60;68.00
69418;DHT22;56610;48.872;2.400;2023-07-08T14:44:31;39.50;68.70
69418;DHT22;56610;48.872;2.400;2023-07-08T14:46:57;39.50;68.10
69418;DHT22;56610;48.872;2.400;2023-07-08T14:49:24;39.50;68.80
69418;DHT22;56610;48.872;2.400;2023-07-08T14:51:51;39.70;67.50
69418;DHT22;56610;48.872;2.400;2023-07-08T14:54:20;39.70;67.80
69418;DHT22;56610;48.872;2.400;2023-07-08T14:56:47;39.60;67.90
69418;DHT22;56610;48.872;2.400;2023-07-08T14:59:21;39.70;66.90
69418;DHT22;56610;48.872;2.400;2023-07-08T15:01:47;39.70;66.20
69418;DHT22;56610;48.872;2.400;2023-07-08T15:04:15;39.50;66.60
69418;DHT22;56610;48.872;2.400;2023-07-08T15:06:42;39.40;66.20
69418;DHT22;56610;48.872;2.400;2023-07-08T15:09:08;39.30;66.50
69418;DHT22;56610;48.872;2.400;2023-07-08T15:11:36;39.20;66.80
69418;DHT22;56610;48.872;2.400;2023-07-08T15:14:03;39.30;66.60
69418;DHT22;56610;48.872;2.400;2023-07-08T15:16:30;39.20;66.10
69418;DHT22;56610;48.872;2.400;2023-07-08T15:18:56;39.00;66.90
69418;DHT22;56610;48.872;2.400;2023-07-08T15:21:22;38.80;66.80
69418;DHT22;56610;48.872;2.400;2023-07-08T15:23:48;38.60;66.30
69418;DHT22;56610;48.872;2.400;2023-07-08T15:26:15;38.40;67.10
69418;DHT22;56610;48.872;2.400;2023-07-08T15:28:41;38.60;66.60
69418;DHT22;56610;48.872;2.400;2023-07-08T15:31:15;38.40;66.70
69418;DHT22;56610;48.872;2.400;2023-07-08T15:33:42;38.20;67.40
69418;DHT22;56610;48.872;2.400;2023-07-08T15:36:11;38.30;66.90
69418;DHT22;56610;48.872;2.400;2023-07-08T15:38:39;38.00;67.20
69418;DHT22;56610;48.872;2.400;2023-07-08T15:41:04;38.00;66.30
69418;DHT22;56610;48.872;2.400;2023-07-08T15:43:30;38.00;66.10
69418;DHT22;56610;48.872;2.400;2023-07-08T15:45:56;37.80;66.60
69418;DHT22;56610;48.872;2.400;2023-07-08T15:48:21;37.90;66.40
69418;DHT22;56610;48.872;2.400;2023-07-08T15:50:47;37.90;66.00
69418;DHT22;56610;48.872;2.400;2023-07-08T15:53:16;37.80;66.30
69418;DHT22;56610;48.872;2.400;2023-07-08T15:55:44;37.80;66.10
69418;DHT22;56610;48.872;2.400;2023-07-08T15:58:28;37.70;65.80
69418;DHT22;56610;48.872;2.400;2023-07-08T16:00:55;37.50;65.70
69418;DHT22;56610;48.872;2.400;2023-07-08T16:03:25;37.60;65.10
69418;DHT22;56610;48.872;2.400;2023-07-08T16:05:52;37.30;65.80
69418;DHT22;56610;48.872;2.400;2023-07-08T16:08:18;37.50;65.90
69418;DHT22;56610;48.872;2.400;2023-07-08T16:10:51;37.40;65.90
69418;DHT22;56610;48.872;2.400;2023-07-08T16:13:22;37.40;66.70
69418;DHT22;56610;48.872;2.400;2023-07-08T16:15:49;37.70;66.50
69418;DHT22;56610;48.872;2.400;2023-07-08T16:18:15;37.50;65.30
69418;DHT22;56610;48.872;2.400;2023-07-08T16:20:40;37.70;65.80
69418;DHT22;56610;48.872;2.400;2023-07-08T16:23:06;38.10;65.90
69418;DHT22;56610;48.872;2.400;2023-07-08T16:25:35;38.00;65.70
69418;DHT22;56610;48.872;2.400;2023-07-08T16:28:01;38.10;64.80